sensor_id;sensor_type;location;lat;lon;timestamp;temperature;humidity
8408;DHT22;4241;48.452;9.216;2023-11-21T00:02:14;8.40;99.90
8408;DHT22;4241;48.452;9.216;2023-11-21T00:04:41;8.40;99.90
8408;DHT22;4241;48.452;9.216;2023-11-21T00:07:09;8.20;99.90
8408;DHT22;4241;48.452;9.216;2023-11-21T00:09:36;8.20;99.90
8408;DHT22;4241;48.452;9.216;2023-11-21T00:12:03;8.30;99.90
8408;DHT22;4241;48.452;9.216;2023-11-21T00:14:31;8.20;99.90
8408;DHT22;4241;48.452;9.216;2023-11-21T00:16:59;8.20;99.90
8408;DHT22;4241;48.452;9.216;2023-11-21T00:19:26;8.20;99.90
8408;DHT22;4241;48.452;9.216;2023-11-21T00:21:53;8.30;99.90
8408;DHT22;4241;48.452;9.216;2023-11-21T00:24:21;8.30;99.90
8408;DHT22;4241;48.452;9.216;2023-11-21T00:26:48;8.30;99.90
8408;DHT22;4241;48.452;9.216;2023-11-21T00:29:14;8.30;99.90
8408;DHT22;4241;48.452;9.216;2023-11-21T00:31:42;8.30;99.90
8408;DHT22;4241;48.452;9.216;2023-11-21T00:34:10;8.30;99.90
8408;DHT22;4241;48.452;9.216;2023-11-21T00:36:37;8.30;99.90
8408;DHT22;4241;48.452;9.216;2023-11-21T00:39:04;8.20;99.90
8408;DHT22;4241;48.452;9.216;2023-11-21T00:41:32;8.20;99.90
8408;DHT22;4241;48.452;9.216;2023-11-21T00:44:00;8.30;99.90
8408;DHT22;4241;48.452;9.216;2023-11-21T00:46:27;8.30;99.90
8408;DHT22;4241;48.452;9.216;2023-11-21T00:48:54;8.30;99.90
8408;DHT22;4241;48.452;9.216;2023-11-21T00:51:22;8.30;99.90
8408;DHT22;4241;48.452;9.216;2023-11-21T00:53:48;8.30;99.90
8408;DHT22;4241;48.452;9.216;2023-11-21T00:56:15;8.40;99.90
8408;DHT22;4241;48.452;9.216;2023-11-21T00:58:44;8.30;99.90
8408;DHT22;4241;48.452;9.216;2023-11-21T01:01:15;8.50;99.90
8408;DHT22;4241;48.452;9.216;2023-11-21T01:03:42;8.30;99.90
8408;DHT22;4241;48.452;9.216;2023-11-21T01:06:09;8.30;99.90
8408;DHT22;4241;48.452;9.216;2023-11-21T01:11:03;8.40;99.90
8408;DHT22;4241;48.452;9.216;2023-11-21T01:13:30;8.20;99.90
8408;DHT22;4241;48.452;9.216;2023-11-21T01:15:58;8.30;99.90
8408;DHT22;4241;48.452;9.216;2023-11-21T01:18:25;8.40;99.90
8408;DHT22;4241;48.452;9.216;2023-11-21T01:20:52;8.50;99.90
8408;DHT22;4241;48.452;9.216;2023-11-21T01:23:19;8.40;99.90
8408;DHT22;4241;48.452;9.216;2023-11-21T01:25:46;8.40;99.90
8408;DHT22;4241;48.452;9.216;2023-11-21T01:28:13;8.50;99.90
8408;DHT22;4241;48.452;9.216;2023-11-21T01:30:40;8.40;99.90
8408;DHT22;4241;48.452;9.216;2023-11-21T01:33:08;9.10;99.90
8408;DHT22;4241;48.452;9.216;2023-11-21T01:35:35;8.40;99.90
8408;DHT22;4241;48.452;9.216;2023-11-21T01:40:29;8.40;99.90
8408;DHT22;4241;48.452;9.216;2023-11-21T01:42:56;8.40;99.90
8408;DHT22;4241;48.452;9.216;2023-11-21T01:45:23;8.40;99.90
8408;DHT22;4241;48.452;9.216;2023-11-21T01:47:52;8.30;99.90
8408;DHT22;4241;48.452;9.216;2023-11-21T01:50:20;8.30;99.90
8408;DHT22;4241;48.452;9.216;2023-11-21T01:52:48;8.30;99.90
8408;DHT22;4241;48.452;9.216;2023-11-21T01:55:16;8.20;99.90
8408;DHT22;4241;48.452;9.216;2023-11-21T01:57:45;8.20;99.90
8408;DHT22;4241;48.452;9.216;2023-11-21T02:00:13;8.20;99.90
8408;DHT22;4241;48.452;9.216;2023-11-21T02:02:45;8.20;99.90
8408;DHT22;4241;48.452;9.216;2023-11-21T02:05:12;8.10;99.90
8408;DHT22;4241;48.452;9.216;2023-11-21T02:07:41;8.20;99.90
8408;DHT22;4241;48.452;9.216;2023-11-21T02:10:08;8.10;99.90
8408;DHT22;4241;48.452;9.216;2023-11-21T02:12:35;8.30;99.90
8408;DHT22;4241;48.452;9.216;2023-11-21T02:15:05;8.30;99.90
8408;DHT22;4241;48.452;9.216;2023-11-21T02:17:40;8.10;99.90
8408;DHT22;4241;48.452;9.216;2023-11-21T02:20:08;8.20;99.90
8408;DHT22;4241;48.452;9.216;2023-11-21T02:22:42;8.10;99.90
8408;DHT22;4241;48.452;9.216;2023-11-21T02:25:11;7.90;99.90
8408;DHT22;4241;48.452;9.216;2023-11-21T02:27:37;8.20;99.90
8408;DHT22;4241;48.452;9.216;2023-11-21T02:30:05;8.10;99.90
8408;DHT22;4241;48.452;9.216;2023-11-21T02:32:33;8.20;99.90
8408;DHT22;4241;48.452;9.216;2023-11-21T02:35:00;8.10;99.90
8408;DHT22;4241;48.452;9.216;2023-11-21T02:37:33;8.30;99.90
8408;DHT22;4241;48.452;9.216;2023-11-21T02:42:32;8.20;99.90
8408;DHT22;4241;48.452;9.216;2023-11-21T02:44:59;8.10;99.90
8408;DHT22;4241;48.452;9.216;2023-11-21T02:47:25;8.30;99.90
8408;DHT22;4241;48.452;9.216;2023-11-21T02:49:52;8.10;99.90
8408;DHT22;4241;48.452;9.216;2023-11-21T02:52:19;8.10;99.90
8408;DHT22;4241;48.452;9.216;2023-11-21T02:54:46;8.20;99.90
8408;DHT22;4241;48.452;9.216;2023-11-21T02:57:13;8.20;99.90
8408;DHT22;4241;48.452;9.216;2023-11-21T03:02:08;8.40;99.90
8408;DHT22;4241;48.452;9.216;2023-11-21T03:04:35;8.30;99.90
8408;DHT22;4241;48.452;9.216;2023-11-21T03:07:02;8.20;99.90
8408;DHT22;4241;48.452;9.216;2023-11-21T03:09:30;8.10;99.90
8408;DHT22;4241;48.452;9.216;2023-11-21T03:11:57;8.40;99.90
8408;DHT22;4241;48.452;9.216;2023-11-21T03:14:24;8.30;99.90
8408;DHT22;4241;48.452;9.216;2023-11-21T03:16:52;8.30;99.90
8408;DHT22;4241;48.452;9.216;2023-11-21T03:19:19;8.20;99.90
8408;DHT22;4241;48.452;9.216;2023-11-21T03:21:46;7.50;99.90
8408;DHT22;4241;48.452;9.216;2023-11-21T03:24:12;8.10;99.90
8408;DHT22;4241;48.452;9.216;2023-11-21T03:26:44;8.40;99.90
8408;DHT22;4241;48.452;9.216;2023-11-21T03:29:12;8.30;99.90
8408;DHT22;4241;48.452;9.216;2023-11-21T03:31:40;8.30;99.90
8408;DHT22;4241;48.452;9.216;2023-11-21T03:34:14;8.20;99.90
8408;DHT22;4241;48.452;9.216;2023-11-21T03:36:41;8.40;99.90
8408;DHT22;4241;48.452;9.216;2023-11-21T03:39:08;8.30;99.90
8408;DHT22;4241;48.452;9.216;2023-11-21T03:41:35;8.30;99.90
8408;DHT22;4241;48.452;9.216;2023-11-21T03:44:02;8.30;99.90
8408;DHT22;4241;48.452;9.216;2023-11-21T03:46:29;8.30;99.90
8408;DHT22;4241;48.452;9.216;2023-11-21T03:48:56;8.30;99.90
8408;DHT22;4241;48.452;9.216;2023-11-21T03:51:24;8.30;99.90
8408;DHT22;4241;48.452;9.216;2023-11-21T03:53:51;8.30;99.90
8408;DHT22;4241;48.452;9.216;2023-11-21T03:56:17;8.30;99.90
8408;DHT22;4241;48.452;9.216;2023-11-21T03:58:44;8.40;99.90
8408;DHT22;4241;48.452;9.216;2023-11-21T04:01:11;8.30;99.90
8408;DHT22;4241;48.452;9.216;2023-11-21T04:03:38;8.40;99.90
8408;DHT22;4241;48.452;9.216;2023-11-21T04:06:06;8.40;99.90
8408;DHT22;4241;48.452;9.216;2023-11-21T04:08:34;8.40;99.90
8408;DHT22;4241;48.452;9.216;2023-11-21T04:11:01;8.40;99.90
8408;DHT22;4241;48.452;9.216;2023-11-21T04:15:56;11.00;99.90
8408;DHT22;4241;48.452;9.216;2023-11-21T04:18:23;8.80;99.90
8408;DHT22;4241;48.452;9.216;2023-11-21T04:20:50;8.50;99.90
8408;DHT22;4241;48.452;9.216;2023-11-21T04:23:16;8.30;99.90
8408;DHT22;4241;48.452;9.216;2023-11-21T04:25:45;8.30;99.90
8408;DHT22;4241;48.452;9.216;2023-11-21T04:28:12;8.30;99.90
8408;DHT22;4241;48.452;9.216;2023-11-21T04:30:39;8.30;99.90
8408;DHT22;4241;48.452;9.216;2023-11-21T04:33:06;8.30;99.90
8408;DHT22;4241;48.452;9.216;2023-11-21T04:38:00;8.30;99.90
8408;DHT22;4241;48.452;9.216;2023-11-21T04:42:56;8.40;99.90
8408;DHT22;4241;48.452;9.216;2023-11-21T04:45:23;8.30;99.90
8408;DHT22;4241;48.452;9.216;2023-11-21T04:47:50;8.30;99.90
8408;DHT22;4241;48.452;9.216;2023-11-21T04:50:18;8.10;99.90
8408;DHT22;4241;48.452;9.216;2023-11-21T04:52:45;8.30;99.90
8408;DHT22;4241;48.452;9.216;2023-11-21T04:55:12;8.20;99.90
8408;DHT22;4241;48.452;9.216;2023-11-21T04:57:41;8.20;99.90
8408;DHT22;4241;48.452;9.216;2023-11-21T05:00:10;8.20;99.90
8408;DHT22;4241;48.452;9.216;2023-11-21T05:05:06;8.20;99.90
8408;DHT22;4241;48.452;9.216;2023-11-21T05:07:33;8.30;99.90
8408;DHT22;4241;48.452;9.216;2023-11-21T05:10:01;8.20;99.90
8408;DHT22;4241;48.452;9.216;2023-11-21T05:12:31;8.10;99.90
8408;DHT22;4241;48.452;9.216;2023-11-21T05:15:00;8.20;99.90
8408;DHT22;4241;48.452;9.216;2023-11-21T05:17:30;8.20;99.90
8408;DHT22;4241;48.452;9.216;2023-11-21T05:19:56;8.20;99.90
8408;DHT22;4241;48.452;9.216;2023-11-21T05:22:23;8.10;99.90
8408;DHT22;4241;48.452;9.216;2023-11-21T05:24:50;8.20;99.90
8408;DHT22;4241;48.452;9.216;2023-11-21T05:27:17;8.10;99.90
8408;DHT22;4241;48.452;9.216;2023-11-21T05:29:43;8.30;99.90
8408;DHT22;4241;48.452;9.216;2023-11-21T05:32:10;8.20;99.90
8408;DHT22;4241;48.452;9.216;2023-11-21T05:34:38;8.20;99.90
8408;DHT22;4241;48.452;9.216;2023-11-21T05:37:05;8.20;99.90
8408;DHT22;4241;48.452;9.216;2023-11-21T05:39:32;8.20;99.90
8408;DHT22;4241;48.452;9.216;2023-11-21T05:41:59;8.30;99.90
8408;DHT22;4241;48.452;9.216;2023-11-21T05:44:26;8.20;99.90
8408;DHT22;4241;48.452;9.216;2023-11-21T05:46:53;8.20;99.90
8408;DHT22;4241;48.452;9.216;2023-11-21T05:51:49;8.20;99.90
8408;DHT22;4241;48.452;9.216;2023-11-21T05:54:19;8.10;99.90
8408;DHT22;4241;48.452;9.216;2023-11-21T05:56:46;8.20;99.90
8408;DHT22;4241;48.452;9.216;2023-11-21T05:59:13;8.20;99.90
8408;DHT22;4241;48.452;9.216;2023-11-21T06:01:40;8.10;99.90
8408;DHT22;4241;48.452;9.216;2023-11-21T06:04:07;8.10;99.90
8408;DHT22;4241;48.452;9.216;2023-11-21T06:06:35;8.10;99.90
8408;DHT22;4241;48.452;9.216;2023-11-21T06:09:03;8.20;99.90
8408;DHT22;4241;48.452;9.216;2023-11-21T06:11:31;8.20;99.90
8408;DHT22;4241;48.452;9.216;2023-11-21T06:13:58;8.10;99.90
8408;DHT22;4241;48.452;9.216;2023-11-21T06:16:25;8.20;99.90
8408;DHT22;4241;48.452;9.216;2023-11-21T06:18:52;8.10;99.90
8408;DHT22;4241;48.452;9.216;2023-11-21T06:21:18;8.10;99.90
8408;DHT22;4241;48.452;9.216;2023-11-21T06:23:45;7.90;99.90
8408;DHT22;4241;48.452;9.216;2023-11-21T06:26:13;7.80;99.90
8408;DHT22;4241;48.452;9.216;2023-11-21T06:28:40;7.90;99.90
8408;DHT22;4241;48.452;9.216;2023-11-21T06:31:07;8.10;99.90
8408;DHT22;4241;48.452;9.216;2023-11-21T06:33:34;8.10;99.90
8408;DHT22;4241;48.452;9.216;2023-11-21T06:36:01;8.20;99.90
8408;DHT22;4241;48.452;9.216;2023-11-21T06:38:28;8.10;99.90
8408;DHT22;4241;48.452;9.216;2023-11-21T06:40:55;8.10;99.90
8408;DHT22;4241;48.452;9.216;2023-11-21T06:43:23;8.00;99.90
8408;DHT22;4241;48.452;9.216;2023-11-21T06:45:51;8.10;99.90
8408;DHT22;4241;48.452;9.216;2023-11-21T06:48:18;8.10;99.90
8408;DHT22;4241;48.452;9.216;2023-11-21T06:50:45;5.80;99.90
8408;DHT22;4241;48.452;9.216;2023-11-21T06:53:12;8.20;99.90
8408;DHT22;4241;48.452;9.216;2023-11-21T06:55:39;8.20;99.90
8408;DHT22;4241;48.452;9.216;2023-11-21T06:58:06;8.00;99.90
8408;DHT22;4241;48.452;9.216;2023-11-21T07:00:34;8.10;99.90
8408;DHT22;4241;48.452;9.216;2023-11-21T07:03:01;8.10;99.90
8408;DHT22;4241;48.452;9.216;2023-11-21T07:05:28;8.10;99.90
8408;DHT22;4241;48.452;9.216;2023-11-21T07:07:55;8.10;99.90
8408;DHT22;4241;48.452;9.216;2023-11-21T07:10:22;8.10;99.90
8408;DHT22;4241;48.452;9.216;2023-11-21T07:12:49;8.10;99.90
8408;DHT22;4241;48.452;9.216;2023-11-21T07:15:16;8.10;99.90
8408;DHT22;4241;48.452;9.216;2023-11-21T07:17:46;8.10;99.90
8408;DHT22;4241;48.452;9.216;2023-11-21T07:20:14;8.10;99.90
8408;DHT22;4241;48.452;9.216;2023-11-21T07:22:42;8.10;99.90
8408;DHT22;4241;48.452;9.216;2023-11-21T07:25:09;8.10;99.90
8408;DHT22;4241;48.452;9.216;2023-11-21T07:27:36;8.10;99.90
8408;DHT22;4241;48.452;9.216;2023-11-21T07:30:04;8.20;99.90
8408;DHT22;4241;48.452;9.216;2023-11-21T07:32:31;8.20;99.90
8408;DHT22;4241;48.452;9.216;2023-11-21T07:34:59;8.20;99.90
8408;DHT22;4241;48.452;9.216;2023-11-21T07:37:27;8.30;99.90
8408;DHT22;4241;48.452;9.216;2023-11-21T07:39:54;8.20;99.90
8408;DHT22;4241;48.452;9.216;2023-11-21T07:42:22;8.40;99.90
8408;DHT22;4241;48.452;9.216;2023-11-21T07:44:49;8.30;99.90
8408;DHT22;4241;48.452;9.216;2023-11-21T07:47:17;8.50;99.90
8408;DHT22;4241;48.452;9.216;2023-11-21T07:49:44;8.30;99.90
8408;DHT22;4241;48.452;9.216;2023-11-21T07:52:13;8.40;99.90
8408;DHT22;4241;48.452;9.216;2023-11-21T07:57:08;8.40;99.90
8408;DHT22;4241;48.452;9.216;2023-11-21T07:59:38;8.40;99.90
8408;DHT22;4241;48.452;9.216;2023-11-21T08:02:06;8.40;99.90
8408;DHT22;4241;48.452;9.216;2023-11-21T08:07:01;8.60;99.90
8408;DHT22;4241;48.452;9.216;2023-11-21T08:09:30;8.50;99.90
8408;DHT22;4241;48.452;9.216;2023-11-21T08:11:58;8.60;99.90
8408;DHT22;4241;48.452;9.216;2023-11-21T08:16:53;8.60;99.90
8408;DHT22;4241;48.452;9.216;2023-11-21T08:19:23;8.60;99.90
8408;DHT22;4241;48.452;9.216;2023-11-21T08:21:50;8.50;99.90
8408;DHT22;4241;48.452;9.216;2023-11-21T08:24:20;8.60;99.90
8408;DHT22;4241;48.452;9.216;2023-11-21T08:26:48;8.70;99.90
8408;DHT22;4241;48.452;9.216;2023-11-21T08:29:16;8.80;99.90
8408;DHT22;4241;48.452;9.216;2023-11-21T08:31:43;8.70;99.90
8408;DHT22;4241;48.452;9.216;2023-11-21T08:34:12;8.70;99.90
8408;DHT22;4241;48.452;9.216;2023-11-21T08:36:41;8.70;99.90
8408;DHT22;4241;48.452;9.216;2023-11-21T08:39:08;8.80;99.90
8408;DHT22;4241;48.452;9.216;2023-11-21T08:41:36;8.60;99.90
8408;DHT22;4241;48.452;9.216;2023-11-21T08:44:04;8.60;99.90
8408;DHT22;4241;48.452;9.216;2023-11-21T08:46:32;8.70;99.90
8408;DHT22;4241;48.452;9.216;2023-11-21T08:49:01;8.80;99.90
8408;DHT22;4241;48.452;9.216;2023-11-21T08:51:28;8.90;99.90
8408;DHT22;4241;48.452;9.216;2023-11-21T08:53:55;8.80;99.90
8408;DHT22;4241;48.452;9.216;2023-11-21T08:56:25;8.90;99.90
8408;DHT22;4241;48.452;9.216;2023-11-21T08:58:52;8.80;99.90
8408;DHT22;4241;48.452;9.216;2023-11-21T09:01:20;8.70;99.90
8408;DHT22;4241;48.452;9.216;2023-11-21T09:03:47;9.00;99.90
8408;DHT22;4241;48.452;9.216;2023-11-21T09:06:15;9.00;99.90
8408;DHT22;4241;48.452;9.216;2023-11-21T09:08:42;9.00;99.90
8408;DHT22;4241;48.452;9.216;2023-11-21T09:11:09;9.10;99.90
8408;DHT22;4241;48.452;9.216;2023-11-21T09:13:36;9.00;99.90
8408;DHT22;4241;48.452;9.216;2023-11-21T09:16:03;9.00;99.90
8408;DHT22;4241;48.452;9.216;2023-11-21T09:18:32;8.90;99.90
8408;DHT22;4241;48.452;9.216;2023-11-21T09:20:59;9.00;99.90
8408;DHT22;4241;48.452;9.216;2023-11-21T09:23:26;9.00;99.90
8408;DHT22;4241;48.452;9.216;2023-11-21T09:25:53;9.00;99.90
8408;DHT22;4241;48.452;9.216;2023-11-21T09:28:22;8.90;99.90
8408;DHT22;4241;48.452;9.216;2023-11-21T09:30:49;8.90;99.90
8408;DHT22;4241;48.452;9.216;2023-11-21T09:33:16;9.00;99.90
8408;DHT22;4241;48.452;9.216;2023-11-21T09:35:44;9.00;99.90
8408;DHT22;4241;48.452;9.216;2023-11-21T09:38:11;8.90;99.90
8408;DHT22;4241;48.452;9.216;2023-11-21T09:43:08;8.80;99.90
8408;DHT22;4241;48.452;9.216;2023-11-21T09:45:45;8.90;99.90
8408;DHT22;4241;48.452;9.216;2023-11-21T09:48:13;8.90;99.90
8408;DHT22;4241;48.452;9.216;2023-11-21T09:50:43;8.90;99.90
8408;DHT22;4241;48.452;9.216;2023-11-21T09:53:14;9.00;99.90
8408;DHT22;4241;48.452;9.216;2023-11-21T09:55:43;8.90;99.90
8408;DHT22;4241;48.452;9.216;2023-11-21T09:58:10;9.00;99.90
8408;DHT22;4241;48.452;9.216;2023-11-21T10:00:41;9.20;99.90
8408;DHT22;4241;48.452;9.216;2023-11-21T10:03:08;9.20;99.90
8408;DHT22;4241;48.452;9.216;2023-11-21T10:05:35;9.30;99.90
8408;DHT22;4241;48.452;9.216;2023-11-21T10:08:06;9.20;99.90
8408;DHT22;4241;48.452;9.216;2023-11-21T10:10:33;9.30;99.90
8408;DHT22;4241;48.452;9.216;2023-11-21T10:13:03;9.30;99.90
8408;DHT22;4241;48.452;9.216;2023-11-21T10:15:33;9.30;99.90
8408;DHT22;4241;48.452;9.216;2023-11-21T10:18:02;9.30;99.90
8408;DHT22;4241;48.452;9.216;2023-11-21T10:20:30;9.40;99.90
8408;DHT22;4241;48.452;9.216;2023-11-21T10:22:59;9.20;99.90
8408;DHT22;4241;48.452;9.216;2023-11-21T10:25:28;9.30;99.90
8408;DHT22;4241;48.452;9.216;2023-11-21T10:27:58;9.30;99.90
8408;DHT22;4241;48.452;9.216;2023-11-21T10:30:32;9.20;99.90
8408;DHT22;4241;48.452;9.216;2023-11-21T10:33:03;9.20;99.90
8408;DHT22;4241;48.452;9.216;2023-11-21T10:35:42;9.20;99.90
8408;DHT22;4241;48.452;9.216;2023-11-21T10:38:12;9.10;99.90
8408;DHT22;4241;48.452;9.216;2023-11-21T10:40:41;9.00;99.90
8408;DHT22;4241;48.452;9.216;2023-11-21T10:43:08;8.90;99.90
8408;DHT22;4241;48.452;9.216;2023-11-21T10:45:36;8.90;99.90
8408;DHT22;4241;48.452;9.216;2023-11-21T10:48:05;9.00;99.90
8408;DHT22;4241;48.452;9.216;2023-11-21T10:50:34;8.60;99.90
8408;DHT22;4241;48.452;9.216;2023-11-21T10:53:02;8.80;99.90
8408;DHT22;4241;48.452;9.216;2023-11-21T10:55:30;8.80;99.90
8408;DHT22;4241;48.452;9.216;2023-11-21T10:58:00;8.70;99.90
8408;DHT22;4241;48.452;9.216;2023-11-21T11:00:30;8.80;99.90
8408;DHT22;4241;48.452;9.216;2023-11-21T11:02:58;8.80;99.90
8408;DHT22;4241;48.452;9.216;2023-11-21T11:05:26;8.90;99.90
8408;DHT22;4241;48.452;9.216;2023-11-21T11:07:58;8.80;99.90
8408;DHT22;4241;48.452;9.216;2023-11-21T11:10:27;8.90;99.90
8408;DHT22;4241;48.452;9.216;2023-11-21T11:12:55;9.00;99.90
8408;DHT22;4241;48.452;9.216;2023-11-21T11:15:24;8.40;99.90
8408;DHT22;4241;48.452;9.216;2023-11-21T11:20:23;8.70;99.90
8408;DHT22;4241;48.452;9.216;2023-11-21T11:22:59;8.70;99.90
8408;DHT22;4241;48.452;9.216;2023-11-21T11:25:41;8.60;99.90
8408;DHT22;4241;48.452;9.216;2023-11-21T11:28:17;8.70;99.90
8408;DHT22;4241;48.452;9.216;2023-11-21T11:30:57;8.70;99.90
8408;DHT22;4241;48.452;9.216;2023-11-21T11:33:33;8.80;99.90
8408;DHT22;4241;48.452;9.216;2023-11-21T11:36:06;8.80;99.90
8408;DHT22;4241;48.452;9.216;2023-11-21T11:38:33;8.80;99.90
8408;DHT22;4241;48.452;9.216;2023-11-21T11:41:02;8.90;99.90
8408;DHT22;4241;48.452;9.216;2023-11-21T11:43:29;8.90;99.90
8408;DHT22;4241;48.452;9.216;2023-11-21T11:46:02;8.90;99.90
8408;DHT22;4241;48.452;9.216;2023-11-21T11:48:30;8.90;99.90
8408;DHT22;4241;48.452;9.216;2023-11-21T11:51:03;9.00;99.90
8408;DHT22;4241;48.452;9.216;2023-11-21T11:53:35;9.20;99.90
8408;DHT22;4241;48.452;9.216;2023-11-21T11:56:22;9.10;99.90
8408;DHT22;4241;48.452;9.216;2023-11-21T11:58:52;9.10;99.90
8408;DHT22;4241;48.452;9.216;2023-11-21T12:01:20;9.20;99.90
8408;DHT22;4241;48.452;9.216;2023-11-21T12:06:51;9.20;99.90
8408;DHT22;4241;48.452;9.216;2023-11-21T12:09:19;9.20;99.90
8408;DHT22;4241;48.452;9.216;2023-11-21T12:14:14;9.00;99.90
8408;DHT22;4241;48.452;9.216;2023-11-21T12:16:42;8.90;99.90
8408;DHT22;4241;48.452;9.216;2023-11-21T12:19:09;8.90;99.90
8408;DHT22;4241;48.452;9.216;2023-11-21T12:21:36;8.80;99.90
8408;DHT22;4241;48.452;9.216;2023-11-21T12:24:04;8.80;99.90
8408;DHT22;4241;48.452;9.216;2023-11-21T12:26:34;8.80;99.90
8408;DHT22;4241;48.452;9.216;2023-11-21T12:29:01;8.90;99.90
8408;DHT22;4241;48.452;9.216;2023-11-21T12:31:30;8.70;99.90
8408;DHT22;4241;48.452;9.216;2023-11-21T12:33:58;8.80;99.90
8408;DHT22;4241;48.452;9.216;2023-11-21T12:36:26;8.80;99.90
8408;DHT22;4241;48.452;9.216;2023-11-21T12:38:54;8.80;99.90
8408;DHT22;4241;48.452;9.216;2023-11-21T12:41:21;8.90;99.90
8408;DHT22;4241;48.452;9.216;2023-11-21T12:43:48;9.00;99.90
8408;DHT22;4241;48.452;9.216;2023-11-21T12:46:16;9.00;99.90
8408;DHT22;4241;48.452;9.216;2023-11-21T12:48:43;8.90;99.90
8408;DHT22;4241;48.452;9.216;2023-11-21T12:51:12;8.90;99.90
8408;DHT22;4241;48.452;9.216;2023-11-21T12:53:41;8.80;99.90
8408;DHT22;4241;48.452;9.216;2023-11-21T12:56:10;8.80;99.90
8408;DHT22;4241;48.452;9.216;2023-11-21T12:58:37;8.90;99.90
8408;DHT22;4241;48.452;9.216;2023-11-21T13:01:06;8.90;99.90
8408;DHT22;4241;48.452;9.216;2023-11-21T13:03:38;9.00;99.90
8408;DHT22;4241;48.452;9.216;2023-11-21T13:06:06;9.00;99.90
8408;DHT22;4241;48.452;9.216;2023-11-21T13:08:36;9.00;99.90
8408;DHT22;4241;48.452;9.216;2023-11-21T13:11:05;9.00;99.90
8408;DHT22;4241;48.452;9.216;2023-11-21T13:13:32;9.10;99.90
8408;DHT22;4241;48.452;9.216;2023-11-21T13:16:00;9.10;99.90
8408;DHT22;4241;48.452;9.216;2023-11-21T13:20:59;9.00;99.90
8408;DHT22;4241;48.452;9.216;2023-11-21T13:25:57;8.90;99.90
8408;DHT22;4241;48.452;9.216;2023-11-21T13:28:29;8.90;99.90
8408;DHT22;4241;48.452;9.216;2023-11-21T13:30:58;8.90;99.90
8408;DHT22;4241;48.452;9.216;2023-11-21T13:33:28;9.00;99.90
8408;DHT22;4241;48.452;9.216;2023-11-21T13:35:56;9.10;99.90
8408;DHT22;4241;48.452;9.216;2023-11-21T13:38:23;9.10;99.90
8408;DHT22;4241;48.452;9.216;2023-11-21T13:40:50;9.20;99.90
8408;DHT22;4241;48.452;9.216;2023-11-21T13:43:21;9.00;99.90
8408;DHT22;4241;48.452;9.216;2023-11-21T13:45:50;9.10;99.90
8408;DHT22;4241;48.452;9.216;2023-11-21T13:48:21;9.10;99.90
8408;DHT22;4241;48.452;9.216;2023-11-21T13:50:54;9.10;99.90
8408;DHT22;4241;48.452;9.216;2023-11-21T13:53:24;9.10;99.90
8408;DHT22;4241;48.452;9.216;2023-11-21T13:55:51;9.20;99.90
8408;DHT22;4241;48.452;9.216;2023-11-21T13:58:21;9.30;99.90
8408;DHT22;4241;48.452;9.216;2023-11-21T14:00:52;9.20;99.90
8408;DHT22;4241;48.452;9.216;2023-11-21T14:03:22;9.30;99.90
8408;DHT22;4241;48.452;9.216;2023-11-21T14:05:58;9.20;99.90
8408;DHT22;4241;48.452;9.216;2023-11-21T14:08:26;9.30;99.90
8408;DHT22;4241;48.452;9.216;2023-11-21T14:10:54;9.10;99.90
8408;DHT22;4241;48.452;9.216;2023-11-21T14:13:24;9.20;99.90
8408;DHT22;4241;48.452;9.216;2023-11-21T14:15:51;9.20;99.90
8408;DHT22;4241;48.452;9.216;2023-11-21T14:18:23;9.10;99.90
8408;DHT22;4241;48.452;9.216;2023-11-21T14:20:59;9.10;99.90
8408;DHT22;4241;48.452;9.216;2023-11-21T14:25:55;9.30;99.90
8408;DHT22;4241;48.452;9.216;2023-11-21T14:28:24;9.20;99.90
8408;DHT22;4241;48.452;9.216;2023-11-21T14:30:51;9.30;99.90
8408;DHT22;4241;48.452;9.216;2023-11-21T14:33:17;9.20;99.90
8408;DHT22;4241;48.452;9.216;2023-11-21T14:35:44;9.30;99.90
8408;DHT22;4241;48.452;9.216;2023-11-21T14:38:12;9.30;99.90
8408;DHT22;4241;48.452;9.216;2023-11-21T14:40:39;9.10;99.90
8408;DHT22;4241;48.452;9.216;2023-11-21T14:43:06;9.20;99.90
8408;DHT22;4241;48.452;9.216;2023-11-21T14:45:35;9.20;99.90
8408;DHT22;4241;48.452;9.216;2023-11-21T14:48:01;9.00;99.90
8408;DHT22;4241;48.452;9.216;2023-11-21T14:50:41;9.00;99.90
8408;DHT22;4241;48.452;9.216;2023-11-21T14:53:31;9.10;99.90
8408;DHT22;4241;48.452;9.216;2023-11-21T14:56:09;9.20;99.90
8408;DHT22;4241;48.452;9.216;2023-11-21T15:01:05;9.00;99.90
8408;DHT22;4241;48.452;9.216;2023-11-21T15:06:09;9.10;99.90
8408;DHT22;4241;48.452;9.216;2023-11-21T15:08:53;9.00;99.90
8408;DHT22;4241;48.452;9.216;2023-11-21T15:11:54;9.00;99.90
8408;DHT22;4241;48.452;9.216;2023-11-21T15:14:25;8.90;99.90
8408;DHT22;4241;48.452;9.216;2023-11-21T15:16:58;9.20;99.90
8408;DHT22;4241;48.452;9.216;2023-11-21T15:19:26;9.00;99.90
8408;DHT22;4241;48.452;9.216;2023-11-21T15:21:54;9.00;99.90
8408;DHT22;4241;48.452;9.216;2023-11-21T15:24:21;8.90;99.90
8408;DHT22;4241;48.452;9.216;2023-11-21T15:26:48;8.90;99.90
8408;DHT22;4241;48.452;9.216;2023-11-21T15:29:16;8.70;99.90
8408;DHT22;4241;48.452;9.216;2023-11-21T15:31:43;8.70;99.90
8408;DHT22;4241;48.452;9.216;2023-11-21T15:34:15;8.60;99.90
8408;DHT22;4241;48.452;9.216;2023-11-21T15:36:42;8.50;99.90
8408;DHT22;4241;48.452;9.216;2023-11-21T15:39:09;8.50;99.90
8408;DHT22;4241;48.452;9.216;2023-11-21T15:41:38;8.50;99.90
8408;DHT22;4241;48.452;9.216;2023-11-21T15:44:05;8.40;99.90
8408;DHT22;4241;48.452;9.216;2023-11-21T15:46:35;8.50;99.90
8408;DHT22;4241;48.452;9.216;2023-11-21T15:49:03;8.40;99.90
8408;DHT22;4241;48.452;9.216;2023-11-21T15:51:39;8.40;99.90
8408;DHT22;4241;48.452;9.216;2023-11-21T15:54:06;8.60;99.90
8408;DHT22;4241;48.452;9.216;2023-11-21T15:59:02;8.40;99.90
8408;DHT22;4241;48.452;9.216;2023-11-21T16:01:30;8.30;99.90
8408;DHT22;4241;48.452;9.216;2023-11-21T16:03:57;8.40;99.90
8408;DHT22;4241;48.452;9.216;2023-11-21T16:06:27;8.50;99.90
8408;DHT22;4241;48.452;9.216;2023-11-21T16:08:55;8.40;99.90
8408;DHT22;4241;48.452;9.216;2023-11-21T16:11:24;8.30;99.90
8408;DHT22;4241;48.452;9.216;2023-11-21T16:13:52;8.40;99.90
8408;DHT22;4241;48.452;9.216;2023-11-21T16:16:21;8.30;99.90
8408;DHT22;4241;48.452;9.216;2023-11-21T16:18:48;8.30;99.90
8408;DHT22;4241;48.452;9.216;2023-11-21T16:21:15;8.30;99.90
8408;DHT22;4241;48.452;9.216;2023-11-21T16:23:42;8.40;99.90
8408;DHT22;4241;48.452;9.216;2023-11-21T16:26:11;8.40;99.90
8408;DHT22;4241;48.452;9.216;2023-11-21T16:28:38;8.20;99.90
8408;DHT22;4241;48.452;9.216;2023-11-21T16:31:07;8.30;99.90
8408;DHT22;4241;48.452;9.216;2023-11-21T16:33:35;8.30;99.90
8408;DHT22;4241;48.452;9.216;2023-11-21T16:36:03;8.30;99.90
8408;DHT22;4241;48.452;9.216;2023-11-21T16:38:29;8.40;99.90
8408;DHT22;4241;48.452;9.216;2023-11-21T16:40:57;8.50;99.90
8408;DHT22;4241;48.452;9.216;2023-11-21T16:43:25;8.40;99.90
8408;DHT22;4241;48.452;9.216;2023-11-21T16:45:52;8.40;99.90
8408;DHT22;4241;48.452;9.216;2023-11-21T16:48:19;8.40;99.90
8408;DHT22;4241;48.452;9.216;2023-11-21T16:50:46;8.50;99.90
8408;DHT22;4241;48.452;9.216;2023-11-21T16:53:13;8.40;99.90
8408;DHT22;4241;48.452;9.216;2023-11-21T16:55:40;8.30;99.90
8408;DHT22;4241;48.452;9.216;2023-11-21T16:58:07;8.30;99.90
8408;DHT22;4241;48.452;9.216;2023-11-21T17:00:36;8.30;99.90
8408;DHT22;4241;48.452;9.216;2023-11-21T17:05:31;8.20;99.90
8408;DHT22;4241;48.452;9.216;2023-11-21T17:07:58;8.20;99.90
8408;DHT22;4241;48.452;9.216;2023-11-21T17:10:25;8.30;99.90
8408;DHT22;4241;48.452;9.216;2023-11-21T17:12:52;8.30;99.90
8408;DHT22;4241;48.452;9.216;2023-11-21T17:15:19;8.20;99.90
8408;DHT22;4241;48.452;9.216;2023-11-21T17:17:48;8.30;99.90
8408;DHT22;4241;48.452;9.216;2023-11-21T17:20:16;8.20;99.90
8408;DHT22;4241;48.452;9.216;2023-11-21T17:25:11;8.10;99.90